sensor_id;sensor_type;location;lat;lon;timestamp;P1;durP1;ratioP1;P2;durP2;ratioP2
78298;SDS011;67556;55.656;12.590;2024-02-23T00:01:03;29.17;;;13.00;;
78298;SDS011;67556;55.656;12.590;2024-02-23T00:03:30;23.92;;;12.52;;
78298;SDS011;67556;55.656;12.590;2024-02-23T00:05:57;27.85;;;14.25;;
78298;SDS011;67556;55.656;12.590;2024-02-23T00:08:25;26.50;;;13.52;;
78298;SDS011;67556;55.656;12.590;2024-02-23T00:10:51;28.02;;;14.50;;
78298;SDS011;67556;55.656;12.590;2024-02-23T00:13:18;30.33;;;14.57;;
78298;SDS011;67556;55.656;12.590;2024-02-23T00:15:47;21.98;;;11.45;;
78298;SDS011;67556;55.656;12.590;2024-02-23T00:18:14;30.23;;;16.00;;
78298;SDS011;67556;55.656;12.590;2024-02-23T00:20:42;29.48;;;14.95;;
78298;SDS011;67556;55.656;12.590;2024-02-23T00:23:13;23.20;;;13.68;;
78298;SDS011;67556;55.656;12.590;2024-02-23T00:25:41;27.83;;;12.57;;
78298;SDS011;67556;55.656;12.590;2024-02-23T00:28:07;24.90;;;12.82;;
78298;SDS011;67556;55.656;12.590;2024-02-23T00:30:35;24.88;;;12.30;;
78298;SDS011;67556;55.656;12.590;2024-02-23T00:33:02;22.02;;;12.13;;
78298;SDS011;67556;55.656;12.590;2024-02-23T00:35:28;24.65;;;11.18;;
78298;SDS011;67556;55.656;12.590;2024-02-23T00:37:56;24.52;;;12.65;;
78298;SDS011;67556;55.656;12.590;2024-02-23T00:40:22;24.20;;;12.38;;
78298;SDS011;67556;55.656;12.590;2024-02-23T00:42:51;22.10;;;12.27;;
78298;SDS011;67556;55.656;12.590;2024-02-23T00:45:17;25.48;;;13.35;;
78298;SDS011;67556;55.656;12.590;2024-02-23T00:47:45;21.90;;;13.18;;
78298;SDS011;67556;55.656;12.590;2024-02-23T00:50:12;17.92;;;9.90;;
78298;SDS011;67556;55.656;12.590;2024-02-23T00:52:39;18.85;;;10.23;;
78298;SDS011;67556;55.656;12.590;2024-02-23T00:55:08;17.80;;;10.45;;
78298;SDS011;67556;55.656;12.590;2024-02-23T00:57:35;20.58;;;11.80;;
78298;SDS011;67556;55.656;12.590;2024-02-23T01:00:04;13.88;;;8.57;;
78298;SDS011;67556;55.656;12.590;2024-02-23T01:02:31;19.40;;;10.90;;
78298;SDS011;67556;55.656;12.590;2024-02-23T01:04:58;13.32;;;7.55;;
78298;SDS011;67556;55.656;12.590;2024-02-23T01:07:25;21.30;;;10.00;;
78298;SDS011;67556;55.656;12.590;2024-02-23T01:09:53;18.08;;;9.73;;
78298;SDS011;67556;55.656;12.590;2024-02-23T01:12:20;20.27;;;9.95;;
78298;SDS011;67556;55.656;12.590;2024-02-23T01:14:46;17.58;;;9.30;;
78298;SDS011;67556;55.656;12.590;2024-02-23T01:17:15;13.52;;;7.47;;
78298;SDS011;67556;55.656;12.590;2024-02-23T01:19:42;17.73;;;8.98;;
78298;SDS011;67556;55.656;12.590;2024-02-23T01:22:09;15.70;;;8.05;;
78298;SDS011;67556;55.656;12.590;2024-02-23T01:24:36;12.02;;;7.53;;
78298;SDS011;67556;55.656;12.590;2024-02-23T01:27:03;15.15;;;7.90;;
78298;SDS011;67556;55.656;12.590;2024-02-23T01:29:29;11.07;;;7.03;;
78298;SDS011;67556;55.656;12.590;2024-02-23T01:31:56;9.60;;;6.03;;
78298;SDS011;67556;55.656;12.590;2024-02-23T01:34:24;9.35;;;5.68;;
78298;SDS011;67556;55.656;12.590;2024-02-23T01:36:51;11.07;;;6.55;;
78298;SDS011;67556;55.656;12.590;2024-02-23T01:39:18;9.70;;;6.40;;
78298;SDS011;67556;55.656;12.590;2024-02-23T01:41:45;11.32;;;6.47;;
78298;SDS011;67556;55.656;12.590;2024-02-23T01:44:13;9.60;;;6.28;;
78298;SDS011;67556;55.656;12.590;2024-02-23T01:46:40;9.20;;;5.82;;
78298;SDS011;67556;55.656;12.590;2024-02-23T01:49:06;9.90;;;5.90;;
78298;SDS011;67556;55.656;12.590;2024-02-23T01:51:44;7.25;;;4.97;;
78298;SDS011;67556;55.656;12.590;2024-02-23T01:54:16;7.55;;;4.93;;
78298;SDS011;67556;55.656;12.590;2024-02-23T01:56:44;6.18;;;4.15;;
78298;SDS011;67556;55.656;12.590;2024-02-23T01:59:11;6.90;;;4.10;;
78298;SDS011;67556;55.656;12.590;2024-02-23T02:01:40;7.68;;;4.22;;
78298;SDS011;67556;55.656;12.590;2024-02-23T02:04:09;5.43;;;3.13;;
78298;SDS011;67556;55.656;12.590;2024-02-23T02:06:36;6.75;;;4.13;;
78298;SDS011;67556;55.656;12.590;2024-02-23T02:09:05;4.32;;;3.65;;
78298;SDS011;67556;55.656;12.590;2024-02-23T02:11:33;4.07;;;3.50;;
78298;SDS011;67556;55.656;12.590;2024-02-23T02:13:59;5.25;;;3.40;;
78298;SDS011;67556;55.656;12.590;2024-02-23T02:16:34;5.63;;;2.90;;
78298;SDS011;67556;55.656;12.590;2024-02-23T02:19:02;6.20;;;2.75;;
78298;SDS011;67556;55.656;12.590;2024-02-23T02:21:36;2.92;;;2.22;;
78298;SDS011;67556;55.656;12.590;2024-02-23T02:24:03;6.00;;;2.80;;
78298;SDS011;67556;55.656;12.590;2024-02-23T02:26:31;3.30;;;3.00;;
78298;SDS011;67556;55.656;12.590;2024-02-23T02:29:05;3.03;;;1.90;;
78298;SDS011;67556;55.656;12.590;2024-02-23T02:31:33;2.65;;;1.90;;
78298;SDS011;67556;55.656;12.590;2024-02-23T02:34:04;3.65;;;2.05;;
78298;SDS011;67556;55.656;12.590;2024-02-23T02:36:43;3.28;;;1.98;;
78298;SDS011;67556;55.656;12.590;2024-02-23T02:39:10;2.55;;;1.83;;
78298;SDS011;67556;55.656;12.590;2024-02-23T02:41:38;5.03;;;1.73;;
78298;SDS011;67556;55.656;12.590;2024-02-23T02:44:05;4.90;;;2.22;;
78298;SDS011;67556;55.656;12.590;2024-02-23T02:46:33;4.65;;;2.22;;
78298;SDS011;67556;55.656;12.590;2024-02-23T02:49:15;3.80;;;1.70;;
78298;SDS011;67556;55.656;12.590;2024-02-23T02:51:43;2.30;;;1.77;;
78298;SDS011;67556;55.656;12.590;2024-02-23T02:54:17;3.75;;;1.77;;
78298;SDS011;67556;55.656;12.590;2024-02-23T02:56:47;5.78;;;2.05;;
78298;SDS011;67556;55.656;12.590;2024-02-23T02:59:23;2.33;;;1.10;;
78298;SDS011;67556;55.656;12.590;2024-02-23T03:02:01;3.35;;;1.48;;
78298;SDS011;67556;55.656;12.590;2024-02-23T03:04:37;3.03;;;1.30;;
78298;SDS011;67556;55.656;12.590;2024-02-23T03:07:05;2.40;;;1.20;;
78298;SDS011;67556;55.656;12.590;2024-02-23T03:09:36;2.63;;;1.20;;
78298;SDS011;67556;55.656;12.590;2024-02-23T03:12:10;1.80;;;1.20;;
78298;SDS011;67556;55.656;12.590;2024-02-23T03:14:36;2.53;;;1.30;;
78298;SDS011;67556;55.656;12.590;2024-02-23T03:17:06;3.28;;;1.48;;
78298;SDS011;67556;55.656;12.590;2024-02-23T03:19:35;2.25;;;1.30;;
78298;SDS011;67556;55.656;12.590;2024-02-23T03:22:12;1.42;;;0.95;;
78298;SDS011;67556;55.656;12.590;2024-02-23T03:24:39;3.63;;;1.60;;
78298;SDS011;67556;55.656;12.590;2024-02-23T03:27:05;2.03;;;1.00;;
78298;SDS011;67556;55.656;12.590;2024-02-23T03:29:39;2.55;;;1.60;;
78298;SDS011;67556;55.656;12.590;2024-02-23T03:32:06;1.17;;;1.00;;
78298;SDS011;67556;55.656;12.590;2024-02-23T03:34:39;2.75;;;1.40;;
78298;SDS011;67556;55.656;12.590;2024-02-23T03:37:11;1.70;;;1.25;;
78298;SDS011;67556;55.656;12.590;2024-02-23T03:39:47;2.60;;;1.40;;
78298;SDS011;67556;55.656;12.590;2024-02-23T03:42:14;2.42;;;1.30;;
78298;SDS011;67556;55.656;12.590;2024-02-23T03:44:44;1.77;;;1.13;;
78298;SDS011;67556;55.656;12.590;2024-02-23T03:47:11;4.43;;;1.42;;
78298;SDS011;67556;55.656;12.590;2024-02-23T03:49:39;3.75;;;1.63;;
78298;SDS011;67556;55.656;12.590;2024-02-23T03:52:12;4.50;;;1.30;;
78298;SDS011;67556;55.656;12.590;2024-02-23T03:54:46;2.22;;;1.05;;
78298;SDS011;67556;55.656;12.590;2024-02-23T03:57:13;3.55;;;1.23;;
78298;SDS011;67556;55.656;12.590;2024-02-23T03:59:52;6.50;;;1.80;;
78298;SDS011;67556;55.656;12.590;2024-02-23T04:02:24;3.20;;;1.50;;
78298;SDS011;67556;55.656;12.590;2024-02-23T04:04:51;3.65;;;1.70;;
78298;SDS011;67556;55.656;12.590;2024-02-23T04:07:17;3.15;;;1.50;;
78298;SDS011;67556;55.656;12.590;2024-02-23T04:09:44;3.97;;;1.50;;
78298;SDS011;67556;55.656;12.590;2024-02-23T04:12:13;2.47;;;1.50;;
78298;SDS011;67556;55.656;12.590;2024-02-23T04:14:40;3.25;;;1.63;;
78298;SDS011;67556;55.656;12.590;2024-02-23T04:17:08;6.28;;;1.42;;
78298;SDS011;67556;55.656;12.590;2024-02-23T04:19:37;3.28;;;1.30;;
78298;SDS011;67556;55.656;12.590;2024-02-23T04:22:05;6.53;;;1.60;;
78298;SDS011;67556;55.656;12.590;2024-02-23T04:24:35;4.50;;;1.60;;
78298;SDS011;67556;55.656;12.590;2024-02-23T04:27:02;1.70;;;1.27;;
78298;SDS011;67556;55.656;12.590;2024-02-23T04:29:28;3.55;;;1.38;;
78298;SDS011;67556;55.656;12.590;2024-02-23T04:31:55;4.18;;;1.63;;
78298;SDS011;67556;55.656;12.590;2024-02-23T04:34:22;1.95;;;1.58;;
78298;SDS011;67556;55.656;12.590;2024-02-23T04:36:49;3.80;;;2.72;;
78298;SDS011;67556;55.656;12.590;2024-02-23T04:39:15;3.15;;;1.35;;
78298;SDS011;67556;55.656;12.590;2024-02-23T04:41:42;4.22;;;1.63;;
78298;SDS011;67556;55.656;12.590;2024-02-23T04:44:09;5.57;;;1.67;;
78298;SDS011;67556;55.656;12.590;2024-02-23T04:46:37;4.45;;;1.67;;
78298;SDS011;67556;55.656;12.590;2024-02-23T04:49:03;3.47;;;1.40;;
78298;SDS011;67556;55.656;12.590;2024-02-23T04:51:31;3.90;;;1.95;;
78298;SDS011;67556;55.656;12.590;2024-02-23T04:54:00;3.55;;;1.42;;
78298;SDS011;67556;55.656;12.590;2024-02-23T04:56:27;6.47;;;2.13;;
78298;SDS011;67556;55.656;12.590;2024-02-23T04:58:54;5.30;;;1.85;;
78298;SDS011;67556;55.656;12.590;2024-02-23T05:01:21;4.60;;;1.60;;
78298;SDS011;67556;55.656;12.590;2024-02-23T05:03:47;5.22;;;1.38;;
78298;SDS011;67556;55.656;12.590;2024-02-23T05:06:14;2.92;;;1.50;;
78298;SDS011;67556;55.656;12.590;2024-02-23T05:08:43;2.83;;;1.63;;
78298;SDS011;67556;55.656;12.590;2024-02-23T05:11:09;4.97;;;2.22;;
78298;SDS011;67556;55.656;12.590;2024-02-23T05:13:41;3.15;;;1.48;;
78298;SDS011;67556;55.656;12.590;2024-02-23T05:16:09;3.28;;;1.80;;
78298;SDS011;67556;55.656;12.590;2024-02-23T05:18:35;3.13;;;1.63;;
78298;SDS011;67556;55.656;12.590;2024-02-23T05:21:02;2.92;;;1.50;;
78298;SDS011;67556;55.656;12.590;2024-02-23T05:23:30;3.90;;;1.60;;
78298;SDS011;67556;55.656;12.590;2024-02-23T05:25:59;2.85;;;1.42;;
78298;SDS011;67556;55.656;12.590;2024-02-23T05:28:25;3.95;;;1.70;;
78298;SDS011;67556;55.656;12.590;2024-02-23T05:30:54;4.47;;;1.70;;
78298;SDS011;67556;55.656;12.590;2024-02-23T05:33:21;5.18;;;2.00;;
78298;SDS011;67556;55.656;12.590;2024-02-23T05:35:48;6.15;;;1.90;;
78298;SDS011;67556;55.656;12.590;2024-02-23T05:38:15;4.30;;;1.70;;
78298;SDS011;67556;55.656;12.590;2024-02-23T05:40:42;6.20;;;2.65;;
78298;SDS011;67556;55.656;12.590;2024-02-23T05:43:10;5.53;;;1.92;;
78298;SDS011;67556;55.656;12.590;2024-02-23T05:45:36;6.78;;;1.90;;
78298;SDS011;67556;55.656;12.590;2024-02-23T05:48:03;5.07;;;1.88;;
78298;SDS011;67556;55.656;12.590;2024-02-23T05:50:31;9.32;;;2.03;;
78298;SDS011;67556;55.656;12.590;2024-02-23T05:52:57;6.57;;;1.88;;
78298;SDS011;67556;55.656;12.590;2024-02-23T05:55:24;4.25;;;1.83;;
78298;SDS011;67556;55.656;12.590;2024-02-23T05:57:53;6.75;;;2.50;;
78298;SDS011;67556;55.656;12.590;2024-02-23T06:00:21;7.22;;;2.17;;
78298;SDS011;67556;55.656;12.590;2024-02-23T06:02:48;3.42;;;1.63;;
78298;SDS011;67556;55.656;12.590;2024-02-23T06:05:15;7.05;;;2.30;;
78298;SDS011;67556;55.656;12.590;2024-02-23T06:07:42;7.57;;;1.85;;
78298;SDS011;67556;55.656;12.590;2024-02-23T06:10:09;3.72;;;2.55;;
78298;SDS011;67556;55.656;12.590;2024-02-23T06:12:37;5.47;;;1.80;;
78298;SDS011;67556;55.656;12.590;2024-02-23T06:15:05;7.25;;;1.85;;
78298;SDS011;67556;55.656;12.590;2024-02-23T06:17:33;5.85;;;1.90;;
78298;SDS011;67556;55.656;12.590;2024-02-23T06:20:00;5.13;;;2.05;;
78298;SDS011;67556;55.656;12.590;2024-02-23T06:22:26;4.53;;;1.77;;
78298;SDS011;67556;55.656;12.590;2024-02-23T06:24:53;4.07;;;1.80;;
78298;SDS011;67556;55.656;12.590;2024-02-23T06:27:20;5.60;;;2.30;;
78298;SDS011;67556;55.656;12.590;2024-02-23T06:29:47;5.07;;;2.00;;
78298;SDS011;67556;55.656;12.590;2024-02-23T06:32:14;4.80;;;1.80;;
78298;SDS011;67556;55.656;12.590;2024-02-23T06:34:42;5.75;;;1.90;;
78298;SDS011;67556;55.656;12.590;2024-02-23T06:37:08;8.07;;;2.22;;
78298;SDS011;67556;55.656;12.590;2024-02-23T06:39:37;9.02;;;2.13;;
78298;SDS011;67556;55.656;12.590;2024-02-23T06:42:03;6.25;;;3.05;;
78298;SDS011;67556;55.656;12.590;2024-02-23T06:44:30;4.45;;;1.63;;
78298;SDS011;67556;55.656;12.590;2024-02-23T06:46:58;5.38;;;1.90;;
78298;SDS011;67556;55.656;12.590;2024-02-23T06:49:26;6.22;;;1.95;;
78298;SDS011;67556;55.656;12.590;2024-02-23T06:51:56;3.50;;;2.08;;
78298;SDS011;67556;55.656;12.590;2024-02-23T06:54:22;5.82;;;1.80;;
78298;SDS011;67556;55.656;12.590;2024-02-23T06:56:50;6.13;;;2.05;;
78298;SDS011;67556;55.656;12.590;2024-02-23T06:59:16;6.63;;;1.90;;
78298;SDS011;67556;55.656;12.590;2024-02-23T07:01:49;4.60;;;2.20;;
78298;SDS011;67556;55.656;12.590;2024-02-23T07:04:15;4.07;;;1.90;;
78298;SDS011;67556;55.656;12.590;2024-02-23T07:06:43;7.25;;;2.60;;
78298;SDS011;67556;55.656;12.590;2024-02-23T07:09:12;7.38;;;2.53;;
78298;SDS011;67556;55.656;12.590;2024-02-23T07:11:39;6.95;;;2.00;;
78298;SDS011;67556;55.656;12.590;2024-02-23T07:14:06;4.55;;;2.22;;
78298;SDS011;67556;55.656;12.590;2024-02-23T07:16:37;6.10;;;2.40;;
78298;SDS011;67556;55.656;12.590;2024-02-23T07:19:04;5.50;;;2.08;;
78298;SDS011;67556;55.656;12.590;2024-02-23T07:21:30;5.15;;;1.70;;
78298;SDS011;67556;55.656;12.590;2024-02-23T07:23:57;2.47;;;1.65;;
78298;SDS011;67556;55.656;12.590;2024-02-23T07:26:25;6.25;;;1.70;;
78298;SDS011;67556;55.656;12.590;2024-02-23T07:28:54;7.72;;;2.72;;
78298;SDS011;67556;55.656;12.590;2024-02-23T07:31:20;8.88;;;2.88;;
78298;SDS011;67556;55.656;12.590;2024-02-23T07:33:47;4.28;;;1.65;;
78298;SDS011;67556;55.656;12.590;2024-02-23T07:36:14;4.45;;;2.47;;
78298;SDS011;67556;55.656;12.590;2024-02-23T07:38:40;4.05;;;1.70;;
78298;SDS011;67556;55.656;12.590;2024-02-23T07:41:09;8.23;;;2.20;;
78298;SDS011;67556;55.656;12.590;2024-02-23T07:43:37;5.63;;;1.90;;
78298;SDS011;67556;55.656;12.590;2024-02-23T07:46:04;5.47;;;1.88;;
78298;SDS011;67556;55.656;12.590;2024-02-23T07:48:33;6.28;;;2.72;;
78298;SDS011;67556;55.656;12.590;2024-02-23T07:51:01;4.03;;;1.98;;
78298;SDS011;67556;55.656;12.590;2024-02-23T07:53:28;5.05;;;2.00;;
78298;SDS011;67556;55.656;12.590;2024-02-23T07:55:54;6.95;;;2.13;;
78298;SDS011;67556;55.656;12.590;2024-02-23T07:58:21;6.68;;;2.10;;
78298;SDS011;67556;55.656;12.590;2024-02-23T08:00:49;6.28;;;2.10;;
78298;SDS011;67556;55.656;12.590;2024-02-23T08:03:15;6.47;;;1.92;;
78298;SDS011;67556;55.656;12.590;2024-02-23T08:05:42;6.50;;;2.17;;
78298;SDS011;67556;55.656;12.590;2024-02-23T08:08:08;4.20;;;1.92;;
78298;SDS011;67556;55.656;12.590;2024-02-23T08:10:35;8.30;;;2.35;;
78298;SDS011;67556;55.656;12.590;2024-02-23T08:13:01;5.63;;;2.70;;
78298;SDS011;67556;55.656;12.590;2024-02-23T08:15:28;6.07;;;2.25;;
78298;SDS011;67556;55.656;12.590;2024-02-23T08:17:56;6.35;;;2.08;;
78298;SDS011;67556;55.656;12.590;2024-02-23T08:20:23;4.22;;;2.03;;
78298;SDS011;67556;55.656;12.590;2024-02-23T08:22:49;5.93;;;2.42;;
78298;SDS011;67556;55.656;12.590;2024-02-23T08:25:16;3.20;;;1.80;;
78298;SDS011;67556;55.656;12.590;2024-02-23T08:27:43;6.82;;;2.05;;
78298;SDS011;67556;55.656;12.590;2024-02-23T08:30:10;6.07;;;2.85;;
78298;SDS011;67556;55.656;12.590;2024-02-23T08:32:36;6.50;;;2.13;;
78298;SDS011;67556;55.656;12.590;2024-02-23T08:35:05;5.53;;;2.25;;
78298;SDS011;67556;55.656;12.590;2024-02-23T08:37:32;5.93;;;2.38;;
78298;SDS011;67556;55.656;12.590;2024-02-23T08:39:59;4.28;;;1.90;;
78298;SDS011;67556;55.656;12.590;2024-02-23T08:42:26;7.05;;;2.15;;
78298;SDS011;67556;55.656;12.590;2024-02-23T08:44:53;5.90;;;2.50;;
78298;SDS011;67556;55.656;12.590;2024-02-23T08:47:20;4.07;;;1.95;;
78298;SDS011;67556;55.656;12.590;2024-02-23T08:49:47;4.38;;;2.42;;
78298;SDS011;67556;55.656;12.590;2024-02-23T08:52:17;4.38;;;1.67;;
78298;SDS011;67556;55.656;12.590;2024-02-23T08:54:44;5.05;;;2.08;;
78298;SDS011;67556;55.656;12.590;2024-02-23T08:57:10;3.70;;;1.92;;
78298;SDS011;67556;55.656;12.590;2024-02-23T08:59:37;3.78;;;2.03;;
78298;SDS011;67556;55.656;12.590;2024-02-23T09:02:03;6.28;;;1.88;;
78298;SDS011;67556;55.656;12.590;2024-02-23T09:04:30;5.75;;;2.17;;
78298;SDS011;67556;55.656;12.590;2024-02-23T09:06:56;3.25;;;2.03;;
78298;SDS011;67556;55.656;12.590;2024-02-23T09:09:26;7.03;;;2.63;;
78298;SDS011;67556;55.656;12.590;2024-02-23T09:11:54;5.88;;;2.00;;
78298;SDS011;67556;55.656;12.590;2024-02-23T09:14:20;5.63;;;1.77;;
78298;SDS011;67556;55.656;12.590;2024-02-23T09:16:47;3.38;;;1.73;;
78298;SDS011;67556;55.656;12.590;2024-02-23T09:19:15;3.42;;;1.75;;
78298;SDS011;67556;55.656;12.590;2024-02-23T09:21:42;8.63;;;2.28;;
78298;SDS011;67556;55.656;12.590;2024-02-23T09:24:08;5.65;;;1.67;;
78298;SDS011;67556;55.656;12.590;2024-02-23T09:26:36;5.47;;;1.65;;
78298;SDS011;67556;55.656;12.590;2024-02-23T09:29:04;3.70;;;1.75;;
78298;SDS011;67556;55.656;12.590;2024-02-23T09:31:31;2.65;;;1.58;;
78298;SDS011;67556;55.656;12.590;2024-02-23T09:33:58;5.63;;;1.70;;
78298;SDS011;67556;55.656;12.590;2024-02-23T09:36:25;5.07;;;2.03;;
78298;SDS011;67556;55.656;12.590;2024-02-23T09:38:51;6.03;;;2.28;;
78298;SDS011;67556;55.656;12.590;2024-02-23T09:41:19;4.93;;;1.90;;
78298;SDS011;67556;55.656;12.590;2024-02-23T09:43:48;5.18;;;1.75;;
78298;SDS011;67556;55.656;12.590;2024-02-23T09:46:15;4.15;;;1.80;;
78298;SDS011;67556;55.656;12.590;2024-02-23T09:48:42;4.40;;;2.00;;
78298;SDS011;67556;55.656;12.590;2024-02-23T09:51:09;7.07;;;2.03;;
78298;SDS011;67556;55.656;12.590;2024-02-23T09:53:38;2.75;;;1.50;;
78298;SDS011;67556;55.656;12.590;2024-02-23T09:56:04;4.68;;;1.50;;
78298;SDS011;67556;55.656;12.590;2024-02-23T09:58:32;3.53;;;1.50;;
78298;SDS011;67556;55.656;12.590;2024-02-23T10:01:01;4.32;;;1.77;;
78298;SDS011;67556;55.656;12.590;2024-02-23T10:03:28;4.15;;;1.67;;
78298;SDS011;67556;55.656;12.590;2024-02-23T10:05:55;3.08;;;2.33;;
78298;SDS011;67556;55.656;12.590;2024-02-23T10:08:23;4.60;;;1.80;;
78298;SDS011;67556;55.656;12.590;2024-02-23T10:10:49;4.88;;;2.05;;
78298;SDS011;67556;55.656;12.590;2024-02-23T10:13:17;3.70;;;1.50;;
78298;SDS011;67556;55.656;12.590;2024-02-23T10:15:44;6.68;;;2.13;;
78298;SDS011;67556;55.656;12.590;2024-02-23T10:18:12;3.00;;;1.55;;
78298;SDS011;67556;55.656;12.590;2024-02-23T10:20:38;3.70;;;1.50;;
78298;SDS011;67556;55.656;12.590;2024-02-23T10:23:05;1.77;;;1.35;;
78298;SDS011;67556;55.656;12.590;2024-02-23T10:25:33;2.42;;;1.58;;
78298;SDS011;67556;55.656;12.590;2024-02-23T10:28:00;3.75;;;1.50;;
78298;SDS011;67556;55.656;12.590;2024-02-23T10:30:27;3.97;;;1.80;;
78298;SDS011;67556;55.656;12.590;2024-02-23T10:32:55;3.75;;;1.67;;
78298;SDS011;67556;55.656;12.590;2024-02-23T10:35:23;3.15;;;1.38;;
78298;SDS011;67556;55.656;12.590;2024-02-23T10:37:50;5.10;;;1.88;;
78298;SDS011;67556;55.656;12.590;2024-02-23T10:40:17;6.57;;;2.00;;
78298;SDS011;67556;55.656;12.590;2024-02-23T10:42:45;4.57;;;1.85;;
78298;SDS011;67556;55.656;12.590;2024-02-23T10:45:13;3.58;;;1.95;;
78298;SDS011;67556;55.656;12.590;2024-02-23T10:47:40;4.28;;;1.90;;
78298;SDS011;67556;55.656;12.590;2024-02-23T10:50:08;4.75;;;1.95;;
78298;SDS011;67556;55.656;12.590;2024-02-23T10:52:36;4.93;;;1.98;;
78298;SDS011;67556;55.656;12.590;2024-02-23T10:55:04;6.03;;;1.63;;
78298;SDS011;67556;55.656;12.590;2024-02-23T10:57:32;4.68;;;1.90;;
78298;SDS011;67556;55.656;12.590;2024-02-23T10:59:58;6.78;;;2.15;;
78298;SDS011;67556;55.656;12.590;2024-02-23T11:02:25;5.68;;;1.80;;
78298;SDS011;67556;55.656;12.590;2024-02-23T11:04:54;5.05;;;2.05;;
78298;SDS011;67556;55.656;12.590;2024-02-23T11:07:22;6.20;;;2.00;;
78298;SDS011;67556;55.656;12.590;2024-02-23T11:09:52;5.75;;;2.20;;
78298;SDS011;67556;55.656;12.590;2024-02-23T11:12:22;4.22;;;2.10;;
78298;SDS011;67556;55.656;12.590;2024-02-23T11:14:49;4.60;;;1.98;;
78298;SDS011;67556;55.656;12.590;2024-02-23T11:17:17;4.20;;;1.77;;
78298;SDS011;67556;55.656;12.590;2024-02-23T11:19:45;4.82;;;2.58;;
78298;SDS011;67556;55.656;12.590;2024-02-23T11:22:12;6.72;;;2.20;;
78298;SDS011;67556;55.656;12.590;2024-02-23T11:24:42;6.60;;;2.30;;
78298;SDS011;67556;55.656;12.590;2024-02-23T11:27:13;4.72;;;1.85;;
78298;SDS011;67556;55.656;12.590;2024-02-23T11:29:39;4.18;;;2.10;;
78298;SDS011;67556;55.656;12.590;2024-02-23T11:32:12;3.45;;;2.13;;
78298;SDS011;67556;55.656;12.590;2024-02-23T11:34:39;1.67;;;1.20;;
78298;SDS011;67556;55.656;12.590;2024-02-23T11:37:07;3.13;;;1.40;;
78298;SDS011;67556;55.656;12.590;2024-02-23T11:39:33;1.75;;;1.58;;
78298;SDS011;67556;55.656;12.590;2024-02-23T11:42:00;3.97;;;1.30;;
78298;SDS011;67556;55.656;12.590;2024-02-23T11:44:30;2.47;;;1.40;;
78298;SDS011;67556;55.656;12.590;2024-02-23T11:46:57;2.67;;;1.52;;
78298;SDS011;67556;55.656;12.590;2024-02-23T11:49:27;3.20;;;1.42;;
78298;SDS011;67556;55.656;12.590;2024-02-23T11:51:53;1.65;;;1.10;;
78298;SDS011;67556;55.656;12.590;2024-02-23T11:54:21;5.03;;;1.73;;
78298;SDS011;67556;55.656;12.590;2024-02-23T11:56:47;2.03;;;1.40;;
78298;SDS011;67556;55.656;12.590;2024-02-23T11:59:14;3.45;;;1.65;;
78298;SDS011;67556;55.656;12.590;2024-02-23T12:01:45;4.07;;;1.80;;
78298;SDS011;67556;55.656;12.590;2024-02-23T12:04:11;2.72;;;1.80;;
78298;SDS011;67556;55.656;12.590;2024-02-23T12:06:41;3.28;;;1.75;;
78298;SDS011;67556;55.656;12.590;2024-02-23T12:09:08;4.00;;;1.98;;
78298;SDS011;67556;55.656;12.590;2024-02-23T12:11:35;3.90;;;1.98;;
78298;SDS011;67556;55.656;12.590;2024-02-23T12:14:02;5.43;;;2.47;;
78298;SDS011;67556;55.656;12.590;2024-02-23T12:16:33;7.30;;;2.85;;
78298;SDS011;67556;55.656;12.590;2024-02-23T12:19:00;7.32;;;2.67;;
78298;SDS011;67556;55.656;12.590;2024-02-23T12:21:27;4.32;;;2.13;;
78298;SDS011;67556;55.656;12.590;2024-02-23T12:23:53;4.53;;;2.60;;
78298;SDS011;67556;55.656;12.590;2024-02-23T12:26:20;6.00;;;2.15;;
78298;SDS011;67556;55.656;12.590;2024-02-23T12:28:46;5.60;;;2.33;;
78298;SDS011;67556;55.656;12.590;2024-02-23T12:31:13;6.63;;;2.78;;
78298;SDS011;67556;55.656;12.590;2024-02-23T12:33:42;3.33;;;2.08;;
78298;SDS011;67556;55.656;12.590;2024-02-23T12:36:21;7.30;;;2.50;;
78298;SDS011;67556;55.656;12.590;2024-02-23T12:38:48;7.45;;;2.40;;
78298;SDS011;67556;55.656;12.590;2024-02-23T12:41:15;3.35;;;2.03;;
78298;SDS011;67556;55.656;12.590;2024-02-23T12:43:41;5.85;;;2.40;;
78298;SDS011;67556;55.656;12.590;2024-02-23T12:46:08;5.95;;;2.60;;
78298;SDS011;67556;55.656;12.590;2024-02-23T12:48:35;5.00;;;1.95;;
78298;SDS011;67556;55.656;12.590;2024-02-23T12:51:02;5.78;;;2.10;;
78298;SDS011;67556;55.656;12.590;2024-02-23T12:53:33;3.10;;;2.13;;
78298;SDS011;67556;55.656;12.590;2024-02-23T12:56:08;5.00;;;2.00;;
78298;SDS011;67556;55.656;12.590;2024-02-23T12:58:36;6.68;;;2.17;;
78298;SDS011;67556;55.656;12.590;2024-02-23T13:01:03;5.50;;;1.90;;
78298;SDS011;67556;55.656;12.590;2024-02-23T13:03:31;3.47;;;2.08;;
78298;SDS011;67556;55.656;12.590;2024-02-23T13:05:59;4.32;;;2.10;;
78298;SDS011;67556;55.656;12.590;2024-02-23T13:08:26;5.50;;;1.90;;
78298;SDS011;67556;55.656;12.590;2024-02-23T13:11:02;7.20;;;2.38;;
78298;SDS011;67556;55.656;12.590;2024-02-23T13:13:28;3.42;;;1.90;;
78298;SDS011;67556;55.656;12.590;2024-02-23T13:15:55;5.43;;;2.30;;
78298;SDS011;67556;55.656;12.590;2024-02-23T13:18:22;4.28;;;2.20;;
78298;SDS011;67556;55.656;12.590;2024-02-23T13:20:49;3.17;;;1.80;;
78298;SDS011;67556;55.656;12.590;2024-02-23T13:23:16;3.42;;;2.08;;
78298;SDS011;67556;55.656;12.590;2024-02-23T13:25:44;4.05;;;2.15;;
78298;SDS011;67556;55.656;12.590;2024-02-23T13:28:12;6.20;;;2.05;;
78298;SDS011;67556;55.656;12.590;2024-02-23T13:30:39;3.25;;;2.05;;
78298;SDS011;67556;55.656;12.590;2024-02-23T13:33:06;6.53;;;2.42;;
78298;SDS011;67556;55.656;12.590;2024-02-23T13:35:33;5.93;;;2.25;;
78298;SDS011;67556;55.656;12.590;2024-02-23T13:38:01;6.68;;;2.30;;
78298;SDS011;67556;55.656;12.590;2024-02-23T13:40:28;5.82;;;2.40;;
78298;SDS011;67556;55.656;12.590;2024-02-23T13:42:55;4.32;;;1.83;;
78298;SDS011;67556;55.656;12.590;2024-02-23T13:45:23;2.22;;;1.70;;
78298;SDS011;67556;55.656;12.590;2024-02-23T13:47:57;5.22;;;2.00;;
78298;SDS011;67556;55.656;12.590;2024-02-23T13:50:24;5.13;;;2.13;;
78298;SDS011;67556;55.656;12.590;2024-02-23T13:52:51;3.67;;;2.65;;
78298;SDS011;67556;55.656;12.590;2024-02-23T13:55:18;6.63;;;2.17;;
78298;SDS011;67556;55.656;12.590;2024-02-23T13:57:45;4.97;;;2.03;;
78298;SDS011;67556;55.656;12.590;2024-02-23T14:00:13;3.88;;;1.92;;
78298;SDS011;67556;55.656;12.590;2024-02-23T14:02:42;4.30;;;2.28;;
78298;SDS011;67556;55.656;12.590;2024-02-23T14:05:10;4.63;;;1.90;;
78298;SDS011;67556;55.656;12.590;2024-02-23T14:07:36;3.70;;;1.70;;
78298;SDS011;67556;55.656;12.590;2024-02-23T14:10:03;4.18;;;2.05;;
78298;SDS011;67556;55.656;12.590;2024-02-23T14:12:31;5.28;;;1.88;;
78298;SDS011;67556;55.656;12.590;2024-02-23T14:14:58;4.07;;;1.80;;
78298;SDS011;67556;55.656;12.590;2024-02-23T14:17:28;3.88;;;1.90;;
78298;SDS011;67556;55.656;12.590;2024-02-23T14:19:56;3.85;;;2.00;;
78298;SDS011;67556;55.656;12.590;2024-02-23T14:24:59;4.80;;;1.98;;
78298;SDS011;67556;55.656;12.590;2024-02-23T14:27:25;3.03;;;1.90;;
78298;SDS011;67556;55.656;12.590;2024-02-23T14:29:53;4.50;;;2.20;;
78298;SDS011;67556;55.656;12.590;2024-02-23T14:32:20;4.45;;;2.00;;
78298;SDS011;67556;55.656;12.590;2024-02-23T14:34:47;4.38;;;1.90;;
78298;SDS011;67556;55.656;12.590;2024-02-23T14:37:17;3.92;;;2.45;;
78298;SDS011;67556;55.656;12.590;2024-02-23T14:39:45;4.50;;;1.90;;